createdAt,value
2022-10-04T00:02:29.258Z,85.19
2022-10-04T00:05:03.938Z,85.48
2022-10-04T00:07:35.910Z,85.82
2022-10-04T00:10:08.740Z,85.24
2022-10-04T00:12:41.009Z,85.26
2022-10-04T00:15:20.825Z,85.24
2022-10-04T00:18:02.767Z,85.60
2022-10-04T00:21:02.377Z,85.55
2022-10-04T00:23:43.342Z,85.25
2022-10-04T00:26:35.808Z,84.83
2022-10-04T00:29:34.785Z,84.75
2022-10-04T00:32:28.817Z,85.13
2022-10-04T00:34:57.689Z,85.93
2022-10-04T00:37:27.184Z,86.47
2022-10-04T00:40:04.400Z,86.66
2022-10-04T00:42:49.100Z,86.75
2022-10-04T00:45:30.974Z,86.58
2022-10-04T00:48:31.904Z,87.05
2022-10-04T00:51:02.022Z,87.25
2022-10-04T00:53:57.261Z,87.50
2022-10-04T00:56:33.844Z,86.88
2022-10-04T00:59:31.081Z,86.76
2022-10-04T01:02:03.653Z,86.52
2022-10-04T01:04:46.315Z,86.36
2022-10-04T01:07:17.445Z,85.71
2022-10-04T01:09:49.524Z,85.69
2022-10-04T01:12:32.989Z,85.31
2022-10-04T01:15:07.478Z,85.10
2022-10-04T01:17:35.438Z,85.15
2022-10-04T01:20:04.135Z,85.21
2022-10-04T01:22:39.013Z,85.13
2022-10-04T01:25:07.374Z,84.85
2022-10-04T01:27:38.566Z,85.19
2022-10-04T01:30:09.542Z,85.11
2022-10-04T01:32:40.360Z,86.13
2022-10-04T01:35:10.518Z,86.62
2022-10-04T01:37:40.426Z,87.04
2022-10-04T01:40:10.510Z,87.19
2022-10-04T01:42:44.631Z,87.02
2022-10-04T01:45:19.003Z,87.31
2022-10-04T01:47:52.750Z,87.12
2022-10-04T01:50:26.232Z,87.01
2022-10-04T01:53:01.298Z,86.46
2022-10-04T01:55:31.715Z,86.41
2022-10-04T01:58:05.224Z,85.99
2022-10-04T02:00:44.074Z,85.83
2022-10-04T02:03:17.884Z,85.63
2022-10-04T02:05:51.861Z,85.60
2022-10-04T02:08:26.969Z,85.39
2022-10-04T02:10:56.001Z,85.73
2022-10-04T02:13:29.866Z,85.68
2022-10-04T02:15:59.446Z,85.71
2022-10-04T02:18:28.740Z,85.81
2022-10-04T02:20:57.420Z,86.18
2022-10-04T02:23:28.103Z,86.38
2022-10-04T02:25:56.192Z,86.43
2022-10-04T02:28:24.121Z,86.48
2022-10-04T02:31:11.542Z,86.56
2022-10-04T02:33:43.806Z,87.81
2022-10-04T02:36:13.179Z,88.36
2022-10-04T02:38:48.969Z,88.21
2022-10-04T02:41:25.905Z,88.38
2022-10-04T02:43:57.819Z,88.17
2022-10-04T02:46:29.467Z,88.10
2022-10-04T02:48:59.407Z,88.20
2022-10-04T02:51:33.336Z,88.35
2022-10-04T02:54:15.608Z,88.00
2022-10-04T02:56:44.278Z,88.11
2022-10-04T02:59:17.388Z,88.09
2022-10-04T03:01:53.644Z,87.98
2022-10-04T03:04:24.316Z,88.95
2022-10-04T03:06:53.721Z,89.44
2022-10-04T03:09:29.510Z,89.64
2022-10-04T03:11:58.203Z,89.73
2022-10-04T03:14:28.257Z,89.83
2022-10-04T03:17:00.590Z,89.86
2022-10-04T03:19:30.902Z,90.06
2022-10-04T03:22:02.455Z,90.21
2022-10-04T03:24:34.501Z,89.88
2022-10-04T03:27:06.601Z,89.57
2022-10-04T03:29:35.062Z,89.30
2022-10-04T03:32:05.286Z,89.03
2022-10-04T03:34:37.687Z,88.98
2022-10-04T03:37:09.043Z,89.33
2022-10-04T03:39:41.607Z,89.91
2022-10-04T03:42:14.389Z,90.13
2022-10-04T03:44:44.630Z,90.83
2022-10-04T03:47:15.887Z,90.65
2022-10-04T03:49:50.001Z,90.63
2022-10-04T03:52:23.944Z,90.66
2022-10-04T03:54:55.723Z,90.05
2022-10-04T03:57:23.976Z,90.28
2022-10-04T03:59:52.739Z,90.17
2022-10-04T04:02:35.465Z,90.51
2022-10-04T04:05:11.323Z,90.71
2022-10-04T04:07:44.702Z,90.69
2022-10-04T04:10:22.743Z,90.46
2022-10-04T04:12:58.080Z,89.98
2022-10-04T04:15:30.716Z,89.80
2022-10-04T04:18:02.402Z,90.49
2022-10-04T04:20:33.786Z,90.17
2022-10-04T04:23:05.083Z,90.75
2022-10-04T04:25:38.147Z,90.63
2022-10-04T04:28:15.997Z,90.58
2022-10-04T04:30:47.474Z,90.78
2022-10-04T04:33:25.200Z,90.21
2022-10-04T04:35:56.552Z,90.12
2022-10-04T04:38:26.261Z,89.57
2022-10-04T04:40:55.765Z,89.96
2022-10-04T04:43:27.523Z,90.48
2022-10-04T04:46:22.132Z,90.44
2022-10-04T04:48:48.231Z,90.80
2022-10-04T04:51:21.843Z,90.41
2022-10-04T04:53:51.026Z,90.56
2022-10-04T04:56:23.288Z,90.10
2022-10-04T04:58:53.908Z,90.26
2022-10-04T05:01:26.668Z,89.72
2022-10-04T05:04:05.562Z,90.39
2022-10-04T05:06:35.728Z,90.28
2022-10-04T05:09:04.412Z,90.01
2022-10-04T05:11:35.900Z,89.86
2022-10-04T05:14:07.620Z,90.23
2022-10-04T05:16:41.446Z,91.00
2022-10-04T05:19:15.193Z,91.60
2022-10-04T05:21:46.520Z,91.61
2022-10-04T05:24:22.518Z,92.06
2022-10-04T05:26:53.467Z,92.16
2022-10-04T05:29:23.413Z,91.99
2022-10-04T05:31:59.288Z,92.13
2022-10-04T05:34:31.632Z,92.34
2022-10-04T05:37:15.279Z,92.72
2022-10-04T05:39:48.127Z,92.30
2022-10-04T05:42:23.508Z,92.25
2022-10-04T05:44:53.061Z,92.15
2022-10-04T05:47:24.146Z,92.36
2022-10-04T05:49:55.471Z,92.28
2022-10-04T05:52:30.472Z,92.07
2022-10-04T05:55:22.606Z,92.41
2022-10-04T05:58:06.044Z,92.57
2022-10-04T06:00:43.858Z,92.20
2022-10-04T06:03:27.596Z,92.21
2022-10-04T06:05:57.369Z,92.10
2022-10-04T06:08:41.956Z,92.53
2022-10-04T06:11:19.720Z,92.44
2022-10-04T06:14:36.350Z,92.33
2022-10-04T06:17:25.913Z,92.12
2022-10-04T06:20:47.619Z,92.09
2022-10-04T06:23:18.535Z,92.05
2022-10-04T06:25:51.689Z,92.14
2022-10-04T06:28:32.387Z,92.10
2022-10-04T06:31:28.846Z,94.74
2022-10-04T06:34:11.149Z,95.34
2022-10-04T06:37:10.775Z,95.92
2022-10-04T06:39:51.038Z,96.63
2022-10-04T06:42:49.249Z,96.70
2022-10-04T06:45:41.124Z,97.45
2022-10-04T06:48:36.492Z,97.46
2022-10-04T06:51:16.256Z,98.36
2022-10-04T06:53:57.389Z,94.98
2022-10-04T06:56:42.858Z,92.54
2022-10-04T06:59:28.620Z,86.93
2022-10-04T07:01:59.951Z,81.09
2022-10-04T07:05:03.083Z,74.18
2022-10-04T07:07:35.684Z,77.48
2022-10-04T07:10:22.814Z,77.48
2022-10-04T07:12:56.683Z,75.19
2022-10-04T07:15:29.360Z,76.29
2022-10-04T07:18:04.770Z,73.55
2022-10-04T07:20:36.723Z,77.28
2022-10-04T07:23:09.536Z,77.30
2022-10-04T07:25:46.204Z,78.85
2022-10-04T07:28:35.879Z,76.80
2022-10-04T07:31:06.347Z,72.38
2022-10-04T07:33:43.135Z,67.93
2022-10-04T07:36:17.657Z,67.52
2022-10-04T07:38:54.422Z,62.65
2022-10-04T07:41:27.664Z,57.03
2022-10-04T07:44:00.981Z,55.25
2022-10-04T07:46:41.088Z,55.53
2022-10-04T07:49:15.129Z,51.66
2022-10-04T07:52:06.433Z,57.22
2022-10-04T07:54:40.694Z,57.53
2022-10-04T07:57:17.702Z,55.87
2022-10-04T07:59:54.359Z,54.23
2022-10-04T08:02:36.582Z,60.38
2022-10-04T08:05:20.744Z,66.40
2022-10-04T08:08:17.434Z,66.61
2022-10-04T08:10:57.586Z,62.36
2022-10-04T08:13:35.046Z,58.34
2022-10-04T08:16:13.719Z,60.25
2022-10-04T08:18:53.148Z,64.99
2022-10-04T08:21:31.649Z,56.74
2022-10-04T08:24:13.639Z,56.67
2022-10-04T08:26:54.234Z,54.07
2022-10-04T08:29:51.261Z,57.84
2022-10-04T08:32:31.263Z,55.91
2022-10-04T08:35:16.893Z,56.50
2022-10-04T08:37:59.222Z,55.91
2022-10-04T08:41:13.054Z,57.02
2022-10-04T08:44:15.587Z,55.00
2022-10-04T08:47:25.363Z,57.63
2022-10-04T08:50:24.285Z,57.41
2022-10-04T08:53:11.022Z,56.06
2022-10-04T08:56:14.795Z,56.69
2022-10-04T08:59:33.044Z,54.36
2022-10-04T09:02:36.297Z,55.07
2022-10-04T09:05:30.497Z,55.27
2022-10-04T09:08:24.216Z,55.74
2022-10-04T09:11:11.189Z,54.66
2022-10-04T09:13:51.671Z,54.69
2022-10-04T09:16:26.117Z,55.07
2022-10-04T09:19:21.643Z,54.99
2022-10-04T09:22:18.660Z,55.50
2022-10-04T09:25:24.012Z,55.33
2022-10-04T09:28:10.197Z,53.88
2022-10-04T09:30:59.495Z,53.57
2022-10-04T09:33:43.344Z,54.02
2022-10-04T09:36:31.208Z,53.89
2022-10-04T09:39:30.555Z,53.57
2022-10-04T09:42:41.876Z,54.27
2022-10-04T09:45:48.205Z,53.59
2022-10-04T09:48:27.021Z,54.11
2022-10-04T09:51:26.025Z,54.45
2022-10-04T09:54:15.876Z,54.84
2022-10-04T09:57:16.780Z,53.95
2022-10-04T10:00:09.506Z,54.00
2022-10-04T10:03:16.234Z,55.24
2022-10-04T10:06:09.876Z,55.63
2022-10-04T10:08:47.878Z,55.21
2022-10-04T10:11:45.524Z,55.52
2022-10-04T10:14:55.676Z,55.06
2022-10-04T10:17:37.885Z,53.91
2022-10-04T10:20:33.606Z,54.79
2022-10-04T10:23:34.336Z,54.19
2022-10-04T10:26:17.232Z,53.95
2022-10-04T10:29:08.288Z,53.00
2022-10-04T10:31:54.424Z,52.51
2022-10-04T10:34:52.558Z,53.00
2022-10-04T10:37:35.750Z,52.09
2022-10-04T10:40:33.069Z,51.95
2022-10-04T10:43:20.819Z,52.35
2022-10-04T10:46:05.567Z,52.42
2022-10-04T10:48:46.970Z,51.50
2022-10-04T10:51:20.525Z,52.09
2022-10-04T10:54:30.102Z,52.32
2022-10-04T10:57:10.539Z,50.56
2022-10-04T11:00:18.025Z,50.46
2022-10-04T11:03:27.284Z,49.93
2022-10-04T11:06:26.154Z,51.79
2022-10-04T11:09:32.668Z,49.74
2022-10-04T11:12:32.982Z,49.83
2022-10-04T11:15:38.417Z,48.76
2022-10-04T11:18:26.444Z,48.56
2022-10-04T11:21:30.290Z,47.82
2022-10-04T11:24:31.294Z,47.15
2022-10-04T11:27:10.953Z,47.77
2022-10-04T11:30:00.164Z,46.39
2022-10-04T11:33:12.519Z,48.39
2022-10-04T11:35:55.516Z,48.45
2022-10-04T11:38:47.989Z,47.94
2022-10-04T11:41:21.458Z,47.96
2022-10-04T11:44:15.916Z,49.68
2022-10-04T11:46:54.083Z,49.82
2022-10-04T11:49:44.082Z,50.09
2022-10-04T11:52:52.985Z,50.84
2022-10-04T11:55:58.433Z,50.57
2022-10-04T11:58:35.375Z,51.05
2022-10-04T12:01:20.290Z,51.87
2022-10-04T12:04:18.559Z,51.16
2022-10-04T12:07:06.216Z,51.62
2022-10-04T12:09:43.034Z,51.26
2022-10-04T12:12:40.487Z,50.37
2022-10-04T12:15:30.234Z,50.79
2022-10-04T12:18:36.366Z,51.42
2022-10-04T12:21:23.437Z,50.78
2022-10-04T12:24:04.158Z,51.15
2022-10-04T12:26:52.684Z,51.70
2022-10-04T12:30:04.637Z,51.27
2022-10-04T12:32:40.369Z,51.52
2022-10-04T12:35:24.009Z,51.81
2022-10-04T12:38:17.985Z,49.93
2022-10-04T12:40:52.526Z,48.29
2022-10-04T12:43:30.838Z,48.04
2022-10-04T12:46:15.313Z,48.67
2022-10-04T12:49:06.350Z,48.54
2022-10-04T12:51:49.585Z,48.27
2022-10-04T12:54:33.450Z,47.16
2022-10-04T12:57:16.089Z,47.19
2022-10-04T12:59:52.768Z,46.08
2022-10-04T13:02:48.884Z,46.98
2022-10-04T13:05:23.627Z,45.36
2022-10-04T13:08:12.330Z,45.77
2022-10-04T13:10:48.729Z,45.66
2022-10-04T13:13:56.132Z,45.62
2022-10-04T13:19:33.334Z,45.40
2022-10-04T13:22:54.833Z,43.81
2022-10-04T13:25:30.668Z,43.88
2022-10-04T13:28:05.253Z,44.12
2022-10-04T13:30:38.745Z,43.23
2022-10-04T13:33:26.857Z,44.01
2022-10-04T13:36:01.460Z,44.14
2022-10-04T13:39:09.372Z,43.93
2022-10-04T13:41:52.748Z,43.88
2022-10-04T13:44:41.516Z,44.71
2022-10-04T13:47:32.950Z,45.05
2022-10-04T13:50:23.937Z,43.76
2022-10-04T13:53:20.413Z,44.78
2022-10-04T13:56:12.406Z,45.09
2022-10-04T13:58:48.270Z,46.40
2022-10-04T14:01:52.696Z,46.34
2022-10-04T14:04:43.253Z,47.03
2022-10-04T14:07:37.602Z,47.73
2022-10-04T14:10:38.459Z,47.32
2022-10-04T14:13:42.963Z,47.75
2022-10-04T14:16:35.565Z,47.40
2022-10-04T14:19:39.660Z,48.23
2022-10-04T14:22:37.040Z,48.32
2022-10-04T14:25:46.813Z,48.80
2022-10-04T14:28:58.844Z,49.54
2022-10-04T14:31:52.772Z,50.57
2022-10-04T14:34:55.058Z,49.98
2022-10-04T14:37:47.361Z,50.47
2022-10-04T14:40:42.507Z,50.86
2022-10-04T14:43:46.574Z,50.65
2022-10-04T14:46:23.510Z,50.48
2022-10-04T14:49:01.758Z,49.65
2022-10-04T14:51:43.315Z,49.79
2022-10-04T14:54:29.074Z,51.18
2022-10-04T14:57:02.529Z,50.75
2022-10-04T14:59:55.061Z,50.68
2022-10-04T15:03:07.399Z,50.46
2022-10-04T15:06:03.148Z,50.66
2022-10-04T15:09:09.864Z,51.14
2022-10-04T15:12:25.558Z,51.84
2022-10-04T15:15:01.944Z,52.45
2022-10-04T15:17:36.422Z,53.10
2022-10-04T15:20:16.948Z,52.77
2022-10-04T15:22:50.621Z,53.24
2022-10-04T15:25:38.347Z,53.52
2022-10-04T15:28:18.654Z,54.06
2022-10-04T15:30:55.709Z,54.63
2022-10-04T15:33:34.060Z,55.47
2022-10-04T15:36:39.574Z,55.53
2022-10-04T15:39:29.948Z,56.36
2022-10-04T15:42:08.940Z,56.58
2022-10-04T15:45:02.170Z,56.89
2022-10-04T15:47:37.074Z,57.97
2022-10-04T15:50:23.499Z,58.00
2022-10-04T15:53:18.828Z,58.03
2022-10-04T15:56:05.781Z,57.82
2022-10-04T15:58:53.195Z,58.10
2022-10-04T16:01:54.812Z,58.71
2022-10-04T16:04:42.852Z,58.86
2022-10-04T16:07:39.807Z,59.22
2022-10-04T16:10:18.021Z,60.03
2022-10-04T16:13:14.115Z,59.93
2022-10-04T16:15:48.042Z,59.65
2022-10-04T16:18:41.817Z,59.59
2022-10-04T16:21:26.413Z,59.57
2022-10-04T16:24:29.129Z,59.47
2022-10-04T16:27:44.314Z,59.41
2022-10-04T16:30:27.228Z,60.30
2022-10-04T16:33:36.225Z,60.30
2022-10-04T16:36:10.290Z,61.33
2022-10-04T16:39:07.559Z,61.25
2022-10-04T16:41:44.101Z,62.17
2022-10-04T16:44:29.943Z,62.55
2022-10-04T16:47:01.921Z,62.70
2022-10-04T16:49:41.223Z,63.04
2022-10-04T16:52:40.079Z,62.73
2022-10-04T16:55:26.162Z,63.10
2022-10-04T16:58:38.553Z,63.67
2022-10-04T17:01:42.451Z,63.99
2022-10-04T17:04:32.370Z,64.26
2022-10-04T17:07:14.427Z,64.88
2022-10-04T17:09:49.175Z,64.82
2022-10-04T17:12:20.045Z,65.19
2022-10-04T17:15:08.569Z,65.54
2022-10-04T17:17:46.702Z,65.81
2022-10-04T17:20:26.425Z,66.26
2022-10-04T17:23:09.340Z,66.43
2022-10-04T17:25:43.775Z,66.24
2022-10-04T17:28:27.316Z,66.67
2022-10-04T17:31:09.720Z,67.00
2022-10-04T17:33:46.758Z,67.31
2022-10-04T17:36:23.382Z,66.20
2022-10-04T17:39:03.902Z,66.89
2022-10-04T17:41:50.494Z,67.57
2022-10-04T17:44:37.165Z,67.50
2022-10-04T17:47:14.531Z,67.63
2022-10-04T17:50:19.238Z,67.99
2022-10-04T17:53:08.044Z,68.12
2022-10-04T17:55:48.610Z,67.70
2022-10-04T17:58:20.928Z,67.77
2022-10-04T18:00:58.975Z,68.33
2022-10-04T18:03:37.208Z,68.36
2022-10-04T18:06:17.076Z,68.49
2022-10-04T18:08:52.303Z,68.79
2022-10-04T18:11:29.442Z,68.63
2022-10-04T18:14:03.513Z,69.14
2022-10-04T18:16:32.852Z,68.83
2022-10-04T18:19:24.256Z,69.12
2022-10-04T18:21:54.213Z,69.18
2022-10-04T18:24:24.129Z,69.55
2022-10-04T18:27:00.500Z,69.20
2022-10-04T18:29:39.252Z,68.90
2022-10-04T18:32:33.018Z,69.27
2022-10-04T18:35:03.253Z,69.78
2022-10-04T18:37:34.585Z,69.60
2022-10-04T18:40:15.234Z,70.21
2022-10-04T18:42:52.163Z,69.64
2022-10-04T18:45:21.560Z,69.17
2022-10-04T18:47:50.741Z,69.56
2022-10-04T18:50:25.208Z,69.78
2022-10-04T18:53:06.872Z,69.77
2022-10-04T18:55:42.828Z,70.33
2022-10-04T18:58:43.759Z,70.32
2022-10-04T19:01:51.298Z,70.36
2022-10-04T19:04:27.708Z,70.29
2022-10-04T19:07:02.003Z,70.80
2022-10-04T19:09:40.103Z,70.80
2022-10-04T19:12:14.108Z,71.08
2022-10-04T19:14:53.669Z,70.94
2022-10-04T19:17:27.888Z,71.52
2022-10-04T19:20:04.352Z,71.19
2022-10-04T19:22:45.962Z,71.23
2022-10-04T19:25:35.483Z,71.45
2022-10-04T19:28:07.899Z,71.50
2022-10-04T19:30:54.916Z,71.35
2022-10-04T19:33:34.353Z,71.60
2022-10-04T19:36:15.319Z,72.04
2022-10-04T19:38:58.563Z,71.61
2022-10-04T19:41:42.019Z,71.97
2022-10-04T19:44:21.971Z,71.94
2022-10-04T19:46:57.786Z,72.41
2022-10-04T19:49:38.301Z,72.14
2022-10-04T19:52:22.219Z,71.93
2022-10-04T19:54:54.591Z,72.25
2022-10-04T19:57:32.772Z,71.65
2022-10-04T20:00:01.593Z,71.95
2022-10-04T20:02:45.984Z,71.63
2022-10-04T20:05:20.147Z,71.64
2022-10-04T20:08:10.106Z,71.93
2022-10-04T20:10:40.550Z,71.77
2022-10-04T20:13:24.102Z,71.44
2022-10-04T20:15:54.432Z,71.95
2022-10-04T20:19:09.661Z,71.47
2022-10-04T20:21:38.845Z,71.54
2022-10-04T20:24:17.253Z,71.58
2022-10-04T20:26:54.794Z,72.08
2022-10-04T20:30:04.596Z,72.25
2022-10-04T20:32:54.991Z,72.20
2022-10-04T20:36:09.525Z,72.57
2022-10-04T20:38:49.832Z,72.30
2022-10-04T20:42:03.921Z,72.41
2022-10-04T20:44:53.097Z,72.18
2022-10-04T20:47:28.871Z,72.75
2022-10-04T20:49:58.051Z,72.76
2022-10-04T20:52:28.564Z,73.01
2022-10-04T20:55:00.166Z,72.84
2022-10-04T20:57:28.753Z,72.91
2022-10-04T20:59:57.735Z,73.17
2022-10-04T21:02:28.476Z,72.61
2022-10-04T21:05:13.334Z,72.65
2022-10-04T21:07:41.188Z,73.11
2022-10-04T21:10:17.800Z,73.13
2022-10-04T21:12:45.617Z,73.51
2022-10-04T21:15:21.295Z,73.53
2022-10-04T21:18:04.293Z,73.27
2022-10-04T21:20:47.110Z,73.20
2022-10-04T21:23:23.150Z,73.29
2022-10-04T21:25:52.453Z,73.51
2022-10-04T21:28:33.632Z,73.47
2022-10-04T21:31:03.184Z,73.26
2022-10-04T21:33:34.810Z,73.54
2022-10-04T21:36:03.274Z,74.06
2022-10-04T21:38:31.302Z,73.52
2022-10-04T21:41:00.462Z,73.46
2022-10-04T21:43:28.496Z,74.06
2022-10-04T21:45:56.538Z,74.03
2022-10-04T21:48:24.612Z,73.78
2022-10-04T21:50:53.585Z,73.87
2022-10-04T21:53:21.755Z,73.96
2022-10-04T21:55:49.796Z,73.97
2022-10-04T21:58:18.887Z,74.01
2022-10-04T22:00:46.647Z,74.20
2022-10-04T22:03:14.420Z,74.29
2022-10-04T22:05:42.119Z,74.50
2022-10-04T22:08:09.896Z,73.96
2022-10-04T22:10:37.664Z,74.63
2022-10-04T22:13:05.362Z,74.54
2022-10-04T22:15:34.411Z,74.26
2022-10-04T22:18:02.139Z,74.25
2022-10-04T22:20:30.125Z,74.42
2022-10-04T22:22:59.076Z,74.62
2022-10-04T22:25:28.497Z,74.87
2022-10-04T22:27:56.332Z,74.12
2022-10-04T22:30:26.598Z,74.71
2022-10-04T22:32:58.682Z,74.44
2022-10-04T22:35:26.437Z,74.30
2022-10-04T22:37:54.354Z,74.98
2022-10-04T22:40:24.253Z,75.21
2022-10-04T22:42:53.590Z,74.81
2022-10-04T22:45:24.415Z,74.84
2022-10-04T22:47:52.984Z,75.18
2022-10-04T22:50:29.566Z,74.82
2022-10-04T22:52:57.661Z,74.94
2022-10-04T22:55:25.750Z,75.17
2022-10-04T22:57:53.633Z,75.51
2022-10-04T23:00:21.432Z,75.34
2022-10-04T23:02:49.945Z,75.57
2022-10-04T23:05:19.993Z,75.83
2022-10-04T23:07:49.930Z,75.44
2022-10-04T23:10:20.323Z,75.78
2022-10-04T23:12:49.617Z,75.39
2022-10-04T23:15:20.133Z,75.40
2022-10-04T23:17:54.239Z,75.82
2022-10-04T23:20:22.919Z,75.98
2022-10-04T23:22:53.951Z,75.69
2022-10-04T23:25:22.516Z,75.51
2022-10-04T23:27:50.311Z,75.57
2022-10-04T23:30:20.322Z,75.82
2022-10-04T23:32:50.053Z,76.19
2022-10-04T23:35:20.738Z,75.67
2022-10-04T23:37:49.127Z,75.77
2022-10-04T23:40:21.282Z,75.71
2022-10-04T23:42:51.678Z,76.12
2022-10-04T23:45:22.237Z,75.86
2022-10-04T23:47:52.855Z,75.79
2022-10-04T23:50:27.814Z,75.69
2022-10-04T23:53:02.369Z,75.78
2022-10-04T23:55:35.943Z,75.70
2022-10-04T23:58:12.062Z,75.89
